Banbury, United Kingdom
Current Conditions -  °F | °C
As of 6:20 PM on Friday 31 Oct 2014 (Local Time) from EGTK Reporting Station
Clear Clear  
Wind Chill: 16°   Ceiling: Unl
Heat Index: 16°   Visibility: 6mi
Dew Point: 14°   Wind: 10mph
Humidity: 88%   Direction: 170°S
Pressure: 29.91"   Gusts: NA
Location:  52.06°N, 1.34°W
Report Text: EGTK 311820Z 17009KT CAVOK 16/14 Q1013
Loading
Personal Weather Stations






























Interactive Weather Map
Tropical Storm Tracking
New forecast layout! Learn more

10-Day Weather Forecast

Advertisements
Track Severe Weather on mobile